sensor_id;sensor_type;location;lat;lon;timestamp;pressure;altitude;pressure_sealevel;temperature;humidity
48630;BME280;34426;52.180;4.462;2023-05-11T00:00:36;101585.81;;;11.43;96.37
48630;BME280;34426;52.180;4.462;2023-05-11T00:03:16;101585.28;;;11.46;96.38
48630;BME280;34426;52.180;4.462;2023-05-11T00:05:42;101577.41;;;11.43;96.80
48630;BME280;34426;52.180;4.462;2023-05-11T00:08:11;101583.34;;;11.47;96.70
48630;BME280;34426;52.180;4.462;2023-05-11T00:10:36;101571.09;;;11.53;96.82
48630;BME280;34426;52.180;4.462;2023-05-11T00:13:02;101576.19;;;11.56;96.41
48630;BME280;34426;52.180;4.462;2023-05-11T00:15:27;101576.19;;;11.56;96.58
48630;BME280;34426;52.180;4.462;2023-05-11T00:17:54;101568.91;;;11.55;96.54
48630;BME280;34426;52.180;4.462;2023-05-11T00:20:19;101568.56;;;11.51;96.65
48630;BME280;34426;52.180;4.462;2023-05-11T00:22:45;101568.75;;;11.45;96.94
48630;BME280;34426;52.180;4.462;2023-05-11T00:25:10;101573.84;;;11.48;96.93
48630;BME280;34426;52.180;4.462;2023-05-11T00:27:36;101570.44;;;11.46;97.15
48630;BME280;34426;52.180;4.462;2023-05-11T00:30:02;101579.44;;;11.48;97.16
48630;BME280;34426;52.180;4.462;2023-05-11T00:32:27;101573.56;;;11.49;97.09
48630;BME280;34426;52.180;4.462;2023-05-11T00:34:54;101578.34;;;11.49;97.17
48630;BME280;34426;52.180;4.462;2023-05-11T00:37:19;101576.53;;;11.43;97.26
48630;BME280;34426;52.180;4.462;2023-05-11T00:39:45;101575.00;;;11.52;97.21
48630;BME280;34426;52.180;4.462;2023-05-11T00:42:10;101570.50;;;11.51;97.09
48630;BME280;34426;52.180;4.462;2023-05-11T00:44:36;101570.84;;;11.54;97.15
48630;BME280;34426;52.180;4.462;2023-05-11T00:47:01;101569.50;;;11.57;96.97
48630;BME280;34426;52.180;4.462;2023-05-11T00:49:27;101567.19;;;11.54;96.84
48630;BME280;34426;52.180;4.462;2023-05-11T00:51:54;101576.38;;;11.49;96.95
48630;BME280;34426;52.180;4.462;2023-05-11T00:54:19;101576.72;;;11.53;97.26
48630;BME280;34426;52.180;4.462;2023-05-11T00:56:45;101572.88;;;11.59;97.14
48630;BME280;34426;52.180;4.462;2023-05-11T00:59:10;101571.63;;;11.50;97.25
48630;BME280;34426;52.180;4.462;2023-05-11T01:01:37;101572.81;;;11.54;97.48
48630;BME280;34426;52.180;4.462;2023-05-11T01:04:03;101574.50;;;11.55;97.08
48630;BME280;34426;52.180;4.462;2023-05-11T01:06:35;101572.81;;;11.54;97.19
48630;BME280;34426;52.180;4.462;2023-05-11T01:09:08;101570.25;;;11.52;97.10
48630;BME280;34426;52.180;4.462;2023-05-11T01:11:40;101571.09;;;11.53;97.05
48630;BME280;34426;52.180;4.462;2023-05-11T01:14:12;101561.34;;;11.55;96.83
48630;BME280;34426;52.180;4.462;2023-05-11T01:16:40;101566.34;;;11.53;96.79
48630;BME280;34426;52.180;4.462;2023-05-11T01:19:14;101566.69;;;11.57;96.75
48630;BME280;34426;52.180;4.462;2023-05-11T01:21:43;101562.38;;;11.49;96.80
48630;BME280;34426;52.180;4.462;2023-05-11T01:24:33;101565.44;;;11.48;97.19
48630;BME280;34426;52.180;4.462;2023-05-11T01:30:23;101562.63;;;11.48;97.24
48630;BME280;34426;52.180;4.462;2023-05-11T01:32:49;101566.03;;;11.50;97.45
48630;BME280;34426;52.180;4.462;2023-05-11T01:35:17;101562.97;;;11.51;97.21
48630;BME280;34426;52.180;4.462;2023-05-11T01:37:47;101565.94;;;11.45;97.38
48630;BME280;34426;52.180;4.462;2023-05-11T01:40:15;101561.78;;;11.47;97.48
48630;BME280;34426;52.180;4.462;2023-05-11T01:42:46;101564.84;;;11.46;97.31
48630;BME280;34426;52.180;4.462;2023-05-11T01:45:12;101561.69;;;11.42;97.18
48630;BME280;34426;52.180;4.462;2023-05-11T01:47:42;101563.72;;;11.47;97.31
48630;BME280;34426;52.180;4.462;2023-05-11T01:50:09;101572.13;;;11.47;97.08
48630;BME280;34426;52.180;4.462;2023-05-11T01:52:36;101570.44;;;11.46;96.90
48630;BME280;34426;52.180;4.462;2023-05-11T01:55:04;101567.88;;;11.44;97.08
48630;BME280;34426;52.180;4.462;2023-05-11T01:57:30;101567.13;;;11.49;97.06
48630;BME280;34426;52.180;4.462;2023-05-11T01:59:58;101574.94;;;11.47;97.25
48630;BME280;34426;52.180;4.462;2023-05-11T02:02:25;101570.78;;;11.49;97.23
48630;BME280;34426;52.180;4.462;2023-05-11T02:04:52;101580.78;;;11.45;97.30
48630;BME280;34426;52.180;4.462;2023-05-11T02:07:19;101578.59;;;11.47;97.16
48630;BME280;34426;52.180;4.462;2023-05-11T02:09:46;101582.50;;;11.46;97.56
48630;BME280;34426;52.180;4.462;2023-05-11T02:12:13;101591.75;;;11.47;97.54
48630;BME280;34426;52.180;4.462;2023-05-11T02:14:40;101587.75;;;11.43;97.72
48630;BME280;34426;52.180;4.462;2023-05-11T02:17:07;101591.16;;;11.45;97.67
48630;BME280;34426;52.180;4.462;2023-05-11T02:19:35;101599.13;;;11.53;97.62
48630;BME280;34426;52.180;4.462;2023-05-11T02:22:03;101591.50;;;11.48;97.68
48630;BME280;34426;52.180;4.462;2023-05-11T02:24:29;101593.94;;;11.45;97.67
48630;BME280;34426;52.180;4.462;2023-05-11T02:26:55;101596.25;;;11.48;97.86
48630;BME280;34426;52.180;4.462;2023-05-11T02:29:22;101598.38;;;11.41;97.56
48630;BME280;34426;52.180;4.462;2023-05-11T02:31:53;101596.16;;;11.43;97.72
48630;BME280;34426;52.180;4.462;2023-05-11T02:34:22;101599.47;;;11.40;97.71
48630;BME280;34426;52.180;4.462;2023-05-11T02:36:50;101598.78;;;11.32;98.06
48630;BME280;34426;52.180;4.462;2023-05-11T02:39:19;101597.09;;;11.31;97.96
48630;BME280;34426;52.180;4.462;2023-05-11T02:41:45;101588.78;;;11.37;97.96
48630;BME280;34426;52.180;4.462;2023-05-11T02:44:14;101592.69;;;11.36;98.25
48630;BME280;34426;52.180;4.462;2023-05-11T02:46:42;101589.78;;;11.30;98.25
48630;BME280;34426;52.180;4.462;2023-05-11T02:49:11;101593.19;;;11.32;98.17
48630;BME280;34426;52.180;4.462;2023-05-11T02:51:42;101590.38;;;11.32;98.03
48630;BME280;34426;52.180;4.462;2023-05-11T02:54:09;101588.94;;;11.30;98.10
48630;BME280;34426;52.180;4.462;2023-05-11T02:56:38;101593.19;;;11.32;97.99
48630;BME280;34426;52.180;4.462;2023-05-11T02:59:05;101592.84;;;11.29;98.05
48630;BME280;34426;52.180;4.462;2023-05-11T03:01:31;101591.69;;;11.25;98.12
48630;BME280;34426;52.180;4.462;2023-05-11T03:03:57;101599.28;;;11.29;98.15
48630;BME280;34426;52.180;4.462;2023-05-11T03:06:23;101598.38;;;11.41;97.90
48630;BME280;34426;52.180;4.462;2023-05-11T03:08:49;101596.66;;;11.40;97.64
48630;BME280;34426;52.180;4.462;2023-05-11T03:11:15;101590.47;;;11.38;97.37
48630;BME280;34426;52.180;4.462;2023-05-11T03:13:43;101595.38;;;11.30;97.92
48630;BME280;34426;52.180;4.462;2023-05-11T03:16:10;101592.59;;;11.30;98.08
48630;BME280;34426;52.180;4.462;2023-05-11T03:18:36;101589.88;;;11.36;97.57
48630;BME280;34426;52.180;4.462;2023-05-11T03:21:03;101595.47;;;11.36;97.72
48630;BME280;34426;52.180;4.462;2023-05-11T03:23:30;101588.09;;;11.29;97.83
48630;BME280;34426;52.180;4.462;2023-05-11T03:25:56;101592.59;;;11.30;97.98
48630;BME280;34426;52.180;4.462;2023-05-11T03:28:23;101593.19;;;11.32;97.59
48630;BME280;34426;52.180;4.462;2023-05-11T03:30:52;101585.25;;;11.24;97.84
48630;BME280;34426;52.180;4.462;2023-05-11T03:33:18;101587.78;;;11.26;97.90
48630;BME280;34426;52.180;4.462;2023-05-11T03:35:44;101595.25;;;11.20;98.21
48630;BME280;34426;52.180;4.462;2023-05-11T03:38:11;101591.84;;;11.18;98.14
48630;BME280;34426;52.180;4.462;2023-05-11T03:40:39;101591.00;;;11.18;98.30
48630;BME280;34426;52.180;4.462;2023-05-11T03:43:07;101587.59;;;11.16;98.56
48630;BME280;34426;52.180;4.462;2023-05-11T03:45:35;101588.78;;;11.20;98.63
48630;BME280;34426;52.180;4.462;2023-05-11T03:48:04;101590.59;;;11.26;98.31
48630;BME280;34426;52.180;4.462;2023-05-11T03:50:30;101588.78;;;11.20;98.62
48630;BME280;34426;52.180;4.462;2023-05-11T03:52:57;101585.66;;;11.16;98.61
48630;BME280;34426;52.180;4.462;2023-05-11T03:55:23;101589.31;;;11.17;98.74
48630;BME280;34426;52.180;4.462;2023-05-11T03:57:49;101583.44;;;11.18;98.78
48630;BME280;34426;52.180;4.462;2023-05-11T04:00:15;101585.06;;;11.14;98.86
48630;BME280;34426;52.180;4.462;2023-05-11T04:02:41;101584.91;;;11.21;99.03
48630;BME280;34426;52.180;4.462;2023-05-11T04:05:09;101581.13;;;11.32;98.83
48630;BME280;34426;52.180;4.462;2023-05-11T04:07:36;101577.69;;;11.25;98.77
48630;BME280;34426;52.180;4.462;2023-05-11T04:10:03;101584.69;;;11.27;98.89
48630;BME280;34426;52.180;4.462;2023-05-11T04:12:29;101584.13;;;11.25;98.90
48630;BME280;34426;52.180;4.462;2023-05-11T04:14:54;101583.84;;;11.27;98.90
48630;BME280;34426;52.180;4.462;2023-05-11T04:17:20;101585.25;;;11.24;98.98
48630;BME280;34426;52.180;4.462;2023-05-11T04:19:45;101581.34;;;11.25;99.14
48630;BME280;34426;52.180;4.462;2023-05-11T04:22:12;101579.03;;;11.22;99.13
48630;BME280;34426;52.180;4.462;2023-05-11T04:24:38;101579.63;;;11.24;99.28
48630;BME280;34426;52.180;4.462;2023-05-11T04:27:03;101584.38;;;11.24;99.34
48630;BME280;34426;52.180;4.462;2023-05-11T04:29:29;101579.28;;;11.21;99.61
48630;BME280;34426;52.180;4.462;2023-05-11T04:31:55;101594.19;;;11.26;99.57
48630;BME280;34426;52.180;4.462;2023-05-11T04:34:20;101594.50;;;11.25;99.48
48630;BME280;34426;52.180;4.462;2023-05-11T04:36:46;101595.34;;;11.25;99.00
48630;BME280;34426;52.180;4.462;2023-05-11T04:39:13;101597.00;;;11.26;99.68
48630;BME280;34426;52.180;4.462;2023-05-11T04:41:39;101596.75;;;11.28;99.43
48630;BME280;34426;52.180;4.462;2023-05-11T04:44:04;101597.44;;;11.35;99.67
48630;BME280;34426;52.180;4.462;2023-05-11T04:46:30;101597.19;;;11.37;99.60
48630;BME280;34426;52.180;4.462;2023-05-11T04:48:55;101598.03;;;11.37;99.47
48630;BME280;34426;52.180;4.462;2023-05-11T04:51:21;101599.13;;;11.36;99.37
48630;BME280;34426;52.180;4.462;2023-05-11T04:53:46;101608.13;;;11.38;99.53
48630;BME280;34426;52.180;4.462;2023-05-11T04:56:13;101608.47;;;11.42;99.36
48630;BME280;34426;52.180;4.462;2023-05-11T04:58:39;101601.00;;;11.47;99.41
48630;BME280;34426;52.180;4.462;2023-05-11T05:01:04;101608.63;;;11.52;99.13
48630;BME280;34426;52.180;4.462;2023-05-11T05:03:30;101614.06;;;11.58;99.17
48630;BME280;34426;52.180;4.462;2023-05-11T05:05:55;101611.09;;;11.65;99.15
48630;BME280;34426;52.180;4.462;2023-05-11T05:08:20;101612.84;;;11.71;99.13
48630;BME280;34426;52.180;4.462;2023-05-11T05:10:46;101607.94;;;11.78;99.08
48630;BME280;34426;52.180;4.462;2023-05-11T05:13:23;101615.91;;;11.86;98.57
48630;BME280;34426;52.180;4.462;2023-05-11T05:15:49;101610.47;;;11.96;98.59
48630;BME280;34426;52.180;4.462;2023-05-11T05:18:14;101618.09;;;12.01;98.69
48630;BME280;34426;52.180;4.462;2023-05-11T05:20:40;101622.00;;;12.00;97.74
48630;BME280;34426;52.180;4.462;2023-05-11T05:23:05;101626.06;;;12.09;98.10
48630;BME280;34426;52.180;4.462;2023-05-11T05:25:31;101621.03;;;12.11;98.07
48630;BME280;34426;52.180;4.462;2023-05-11T05:27:56;101623.59;;;12.13;97.63
48630;BME280;34426;52.180;4.462;2023-05-11T05:30:23;101628.06;;;12.14;97.53
48630;BME280;34426;52.180;4.462;2023-05-11T05:32:49;101627.44;;;12.07;97.20
48630;BME280;34426;52.180;4.462;2023-05-11T05:35:14;101636.22;;;12.15;97.84
48630;BME280;34426;52.180;4.462;2023-05-11T05:37:40;101628.34;;;12.12;97.18
48630;BME280;34426;52.180;4.462;2023-05-11T05:40:06;101632.56;;;12.15;97.19
48630;BME280;34426;52.180;4.462;2023-05-11T05:42:32;101632.91;;;12.18;97.17
48630;BME280;34426;52.180;4.462;2023-05-11T05:44:58;101635.19;;;12.21;97.01
48630;BME280;34426;52.180;4.462;2023-05-11T05:47:24;101642.81;;;12.26;96.86
48630;BME280;34426;52.180;4.462;2023-05-11T05:49:50;101643.66;;;12.26;96.37
48630;BME280;34426;52.180;4.462;2023-05-11T05:52:15;101649.41;;;12.37;96.60
48630;BME280;34426;52.180;4.462;2023-05-11T05:54:41;101648.91;;;12.40;96.13
48630;BME280;34426;52.180;4.462;2023-05-11T05:57:07;101643.94;;;12.47;96.55
48630;BME280;34426;52.180;4.462;2023-05-11T05:59:32;101654.13;;;12.53;96.14
48630;BME280;34426;52.180;4.462;2023-05-11T06:01:58;101649.97;;;12.60;95.90
48630;BME280;34426;52.180;4.462;2023-05-11T06:04:24;101657.94;;;12.69;94.94
48630;BME280;34426;52.180;4.462;2023-05-11T06:06:50;101652.34;;;12.69;95.16
48630;BME280;34426;52.180;4.462;2023-05-11T06:09:15;101660.22;;;12.72;94.31
48630;BME280;34426;52.180;4.462;2023-05-11T06:11:41;101663.88;;;12.72;94.89
48630;BME280;34426;52.180;4.462;2023-05-11T06:14:09;101668.31;;;12.68;94.97
48630;BME280;34426;52.180;4.462;2023-05-11T06:16:35;101672.31;;;12.72;94.73
48630;BME280;34426;52.180;4.462;2023-05-11T06:19:07;101674.06;;;12.78;94.92
48630;BME280;34426;52.180;4.462;2023-05-11T06:21:42;101675.50;;;12.81;94.67
48630;BME280;34426;52.180;4.462;2023-05-11T06:24:08;101670.22;;;12.84;94.65
48630;BME280;34426;52.180;4.462;2023-05-11T06:26:33;101676.69;;;12.85;94.67
48630;BME280;34426;52.180;4.462;2023-05-11T06:28:59;101671.66;;;12.87;94.67
48630;BME280;34426;52.180;4.462;2023-05-11T06:31:24;101680.00;;;12.82;93.93
48630;BME280;34426;52.180;4.462;2023-05-11T06:33:50;101671.66;;;12.87;94.37
48630;BME280;34426;52.180;4.462;2023-05-11T06:36:15;101672.81;;;12.91;94.02
48630;BME280;34426;52.180;4.462;2023-05-11T06:38:42;101669.41;;;12.89;94.19
48630;BME280;34426;52.180;4.462;2023-05-11T06:41:08;101671.44;;;12.93;93.80
48630;BME280;34426;52.180;4.462;2023-05-11T06:43:33;101672.38;;;13.04;94.30
48630;BME280;34426;52.180;4.462;2023-05-11T06:45:59;101674.41;;;13.09;93.66
48630;BME280;34426;52.180;4.462;2023-05-11T06:48:24;101674.41;;;13.09;93.64
48630;BME280;34426;52.180;4.462;2023-05-11T06:50:49;101672.84;;;13.18;93.37
48630;BME280;34426;52.180;4.462;2023-05-11T06:53:15;101674.28;;;13.20;93.64
48630;BME280;34426;52.180;4.462;2023-05-11T06:55:42;101670.09;;;13.23;93.08
48630;BME280;34426;52.180;4.462;2023-05-11T06:58:07;101674.31;;;13.25;92.92
48630;BME280;34426;52.180;4.462;2023-05-11T07:00:33;101680.16;;;13.19;92.51
48630;BME280;34426;52.180;4.462;2023-05-11T07:02:58;101684.06;;;13.18;92.13
48630;BME280;34426;52.180;4.462;2023-05-11T07:05:24;101683.53;;;13.21;92.54
48630;BME280;34426;52.180;4.462;2023-05-11T07:07:50;101679.16;;;13.30;91.94
48630;BME280;34426;52.180;4.462;2023-05-11T07:10:15;101677.25;;;13.36;90.56
48630;BME280;34426;52.180;4.462;2023-05-11T07:12:42;101686.00;;;13.44;89.68
48630;BME280;34426;52.180;4.462;2023-05-11T07:15:08;101684.03;;;13.45;89.68
48630;BME280;34426;52.180;4.462;2023-05-11T07:17:34;101678.66;;;13.38;89.16
48630;BME280;34426;52.180;4.462;2023-05-11T07:19:59;101689.13;;;13.48;89.32
48630;BME280;34426;52.180;4.462;2023-05-11T07:22:25;101686.31;;;13.43;89.78
48630;BME280;34426;52.180;4.462;2023-05-11T07:24:50;101684.03;;;13.45;89.77
48630;BME280;34426;52.180;4.462;2023-05-11T07:27:16;101694.69;;;13.38;89.86
48630;BME280;34426;52.180;4.462;2023-05-11T07:29:48;101698.59;;;13.37;89.49
48630;BME280;34426;52.180;4.462;2023-05-11T07:32:14;101691.38;;;13.46;89.59
48630;BME280;34426;52.180;4.462;2023-05-11T07:34:39;101693.69;;;13.54;89.78
48630;BME280;34426;52.180;4.462;2023-05-11T07:37:18;101694.84;;;13.58;89.04
48630;BME280;34426;52.180;4.462;2023-05-11T07:39:43;101696.19;;;13.50;89.01
48630;BME280;34426;52.180;4.462;2023-05-11T07:42:09;101684.13;;;13.55;89.79
48630;BME280;34426;52.180;4.462;2023-05-11T07:44:35;101693.19;;;13.62;89.56
48630;BME280;34426;52.180;4.462;2023-05-11T07:47:02;101692.09;;;13.63;89.82
48630;BME280;34426;52.180;4.462;2023-05-11T07:49:28;101698.44;;;13.80;89.73
48630;BME280;34426;52.180;4.462;2023-05-11T07:51:53;101695.34;;;13.87;88.77
48630;BME280;34426;52.180;4.462;2023-05-11T07:54:19;101695.66;;;13.90;88.21
48630;BME280;34426;52.180;4.462;2023-05-11T07:56:44;101697.44;;;14.02;87.52
48630;BME280;34426;52.180;4.462;2023-05-11T07:59:10;101699.75;;;14.10;87.55
48630;BME280;34426;52.180;4.462;2023-05-11T08:01:35;101700.69;;;14.20;86.83
48630;BME280;34426;52.180;4.462;2023-05-11T08:04:02;101702.69;;;14.30;86.99
48630;BME280;34426;52.180;4.462;2023-05-11T08:06:28;101705.22;;;14.31;86.76
48630;BME280;34426;52.180;4.462;2023-05-11T08:08:54;101710.84;;;14.31;86.54
48630;BME280;34426;52.180;4.462;2023-05-11T08:11:19;101707.50;;;14.29;86.87
48630;BME280;34426;52.180;4.462;2023-05-11T08:13:45;101707.78;;;14.28;87.31
48630;BME280;34426;52.180;4.462;2023-05-11T08:16:10;101713.94;;;14.30;87.17
48630;BME280;34426;52.180;4.462;2023-05-11T08:18:35;101712.28;;;14.29;87.04
48630;BME280;34426;52.180;4.462;2023-05-11T08:21:03;101704.78;;;14.45;87.04
48630;BME280;34426;52.180;4.462;2023-05-11T08:23:30;101701.19;;;14.54;85.95
48630;BME280;34426;52.180;4.462;2023-05-11T08:25:56;101704.38;;;14.83;85.62
48630;BME280;34426;52.180;4.462;2023-05-11T08:28:24;101701.34;;;15.00;84.45
48630;BME280;34426;52.180;4.462;2023-05-11T08:30:53;101703.09;;;15.11;83.46
48630;BME280;34426;52.180;4.462;2023-05-11T08:33:19;101714.38;;;15.26;83.22
48630;BME280;34426;52.180;4.462;2023-05-11T08:35:44;101711.88;;;15.35;81.84
48630;BME280;34426;52.180;4.462;2023-05-11T08:38:16;101716.09;;;15.43;81.44
48630;BME280;34426;52.180;4.462;2023-05-11T08:40:42;101713.56;;;15.46;80.84
48630;BME280;34426;52.180;4.462;2023-05-11T08:43:07;101702.88;;;15.63;80.93
48630;BME280;34426;52.180;4.462;2023-05-11T08:45:35;101707.13;;;15.71;79.89
48630;BME280;34426;52.180;4.462;2023-05-11T08:48:02;101707.41;;;15.90;79.96
48630;BME280;34426;52.180;4.462;2023-05-11T08:50:28;101712.22;;;16.00;79.70
48630;BME280;34426;52.180;4.462;2023-05-11T08:52:54;101707.13;;;16.02;78.01
48630;BME280;34426;52.180;4.462;2023-05-11T08:55:23;101710.50;;;16.04;78.05
48630;BME280;34426;52.180;4.462;2023-05-11T08:57:50;101708.28;;;15.95;77.00
48630;BME280;34426;52.180;4.462;2023-05-11T09:00:18;101716.16;;;15.93;77.76
48630;BME280;34426;52.180;4.462;2023-05-11T09:02:44;101716.72;;;15.95;77.71
48630;BME280;34426;52.180;4.462;2023-05-11T09:05:10;101719.28;;;15.97;77.80
48630;BME280;34426;52.180;4.462;2023-05-11T09:07:37;101709.66;;;16.03;77.49
48630;BME280;34426;52.180;4.462;2023-05-11T09:10:05;101708.50;;;16.04;78.00
48630;BME280;34426;52.180;4.462;2023-05-11T09:12:33;101714.47;;;16.03;77.89
48630;BME280;34426;52.180;4.462;2023-05-11T09:14:59;101706.56;;;15.94;77.90
48630;BME280;34426;52.180;4.462;2023-05-11T09:17:24;101704.88;;;15.93;78.57
48630;BME280;34426;52.180;4.462;2023-05-11T09:20:01;101703.16;;;16.13;78.88
48630;BME280;34426;52.180;4.462;2023-05-11T09:22:27;101711.88;;;16.26;79.28
48630;BME280;34426;52.180;4.462;2023-05-11T09:24:53;101709.25;;;16.50;78.01
48630;BME280;34426;52.180;4.462;2023-05-11T09:27:18;101716.66;;;16.41;77.32
48630;BME280;34426;52.180;4.462;2023-05-11T09:29:45;101707.94;;;16.22;77.48
48630;BME280;34426;52.180;4.462;2023-05-11T09:32:11;101707.66;;;16.19;77.79
48630;BME280;34426;52.180;4.462;2023-05-11T09:34:36;101705.97;;;16.23;77.45
48630;BME280;34426;52.180;4.462;2023-05-11T09:37:02;101712.16;;;16.35;77.10
48630;BME280;34426;52.180;4.462;2023-05-11T09:39:29;101707.63;;;16.39;76.59
48630;BME280;34426;52.180;4.462;2023-05-11T09:42:12;101708.47;;;16.40;77.00
48630;BME280;34426;52.180;4.462;2023-05-11T09:44:38;101716.59;;;16.51;76.36
48630;BME280;34426;52.180;4.462;2023-05-11T09:47:11;101713.31;;;16.19;75.82
48630;BME280;34426;52.180;4.462;2023-05-11T09:49:37;101711.38;;;15.94;76.76
48630;BME280;34426;52.180;4.462;2023-05-11T09:52:03;101712.78;;;15.81;77.88
48630;BME280;34426;52.180;4.462;2023-05-11T09:54:29;101711.38;;;15.74;77.91
48630;BME280;34426;52.180;4.462;2023-05-11T09:56:54;101710.25;;;15.85;78.68
48630;BME280;34426;52.180;4.462;2023-05-11T09:59:36;101705.72;;;15.94;77.02
48630;BME280;34426;52.180;4.462;2023-05-11T10:02:16;101704.00;;;16.13;76.74
48630;BME280;34426;52.180;4.462;2023-05-11T10:04:42;101709.63;;;16.23;75.96
48630;BME280;34426;52.180;4.462;2023-05-11T10:07:07;101720.94;;;16.13;76.31
48630;BME280;34426;52.180;4.462;2023-05-11T10:09:33;101713.31;;;16.04;75.81
48630;BME280;34426;52.180;4.462;2023-05-11T10:11:59;101708.28;;;15.85;76.20
48630;BME280;34426;52.180;4.462;2023-05-11T10:14:26;101716.72;;;15.70;76.65
48630;BME280;34426;52.180;4.462;2023-05-11T10:16:52;101715.03;;;15.74;77.07
48630;BME280;34426;52.180;4.462;2023-05-11T10:19:22;101721.81;;;15.73;77.22
48630;BME280;34426;52.180;4.462;2023-05-11T10:21:50;101717.31;;;15.57;77.50
48630;BME280;34426;52.180;4.462;2023-05-11T10:24:16;101717.84;;;15.64;77.58
48630;BME280;34426;52.180;4.462;2023-05-11T10:26:42;101716.44;;;15.61;77.38
48630;BME280;34426;52.180;4.462;2023-05-11T10:29:08;101717.31;;;15.57;78.05
48630;BME280;34426;52.180;4.462;2023-05-11T10:31:34;101709.94;;;15.56;78.74
48630;BME280;34426;52.180;4.462;2023-05-11T10:34:02;101716.44;;;15.56;78.85
48630;BME280;34426;52.180;4.462;2023-05-11T10:36:29;101714.72;;;15.60;78.26
48630;BME280;34426;52.180;4.462;2023-05-11T10:38:55;101714.72;;;15.55;78.49
48630;BME280;34426;52.180;4.462;2023-05-11T10:41:33;101727.41;;;15.53;77.78
48630;BME280;34426;52.180;4.462;2023-05-11T10:47:18;101721.69;;;15.12;78.06
48630;BME280;34426;52.180;4.462;2023-05-11T10:50:09;101728.94;;;14.93;78.96
48630;BME280;34426;52.180;4.462;2023-05-11T10:55:37;101731.72;;;14.88;79.98
48630;BME280;34426;52.180;4.462;2023-05-11T10:58:13;101724.91;;;14.74;80.53
48630;BME280;34426;52.180;4.462;2023-05-11T11:01:22;101735.06;;;14.70;80.66
48630;BME280;34426;52.180;4.462;2023-05-11T11:03:58;101734.97;;;14.54;81.52
48630;BME280;34426;52.180;4.462;2023-05-11T11:06:23;101729.91;;;14.56;82.05
48630;BME280;34426;52.180;4.462;2023-05-11T11:08:57;101729.38;;;14.59;81.26
48630;BME280;34426;52.180;4.462;2023-05-11T11:11:31;101726.22;;;14.51;81.18
48630;BME280;34426;52.180;4.462;2023-05-11T11:13:58;101729.88;;;14.51;81.14
48630;BME280;34426;52.180;4.462;2023-05-11T11:16:24;101732.41;;;14.53;80.71
48630;BME280;34426;52.180;4.462;2023-05-11T11:18:50;101734.09;;;14.49;80.14
48630;BME280;34426;52.180;4.462;2023-05-11T11:21:38;101732.63;;;14.41;80.16
48630;BME280;34426;52.180;4.462;2023-05-11T11:24:05;101726.75;;;14.48;80.04
48630;BME280;34426;52.180;4.462;2023-05-11T11:26:48;101728.75;;;14.52;80.19
48630;BME280;34426;52.180;4.462;2023-05-11T11:29:14;101729.13;;;14.66;80.33
48630;BME280;34426;52.180;4.462;2023-05-11T11:31:40;101729.41;;;14.75;79.94
48630;BME280;34426;52.180;4.462;2023-05-11T11:34:31;101722.72;;;14.91;78.30
48630;BME280;34426;52.180;4.462;2023-05-11T11:37:03;101724.69;;;14.90;78.41
48630;BME280;34426;52.180;4.462;2023-05-11T11:39:52;101726.69;;;14.95;78.32
48630;BME280;34426;52.180;4.462;2023-05-11T11:42:31;101728.41;;;15.01;77.97
48630;BME280;34426;52.180;4.462;2023-05-11T11:45:24;101739.69;;;15.06;77.17
48630;BME280;34426;52.180;4.462;2023-05-11T11:48:05;101745.34;;;15.16;77.89
48630;BME280;34426;52.180;4.462;2023-05-11T11:50:32;101746.50;;;15.20;77.51
48630;BME280;34426;52.180;4.462;2023-05-11T11:52:57;101746.50;;;15.20;77.32
48630;BME280;34426;52.180;4.462;2023-05-11T11:55:44;101746.47;;;15.10;77.37
48630;BME280;34426;52.180;4.462;2023-05-11T11:58:10;101749.31;;;15.25;77.53
48630;BME280;34426;52.180;4.462;2023-05-11T12:00:37;101749.34;;;15.36;77.56
48630;BME280;34426;52.180;4.462;2023-05-11T12:03:04;101751.06;;;15.37;77.87
48630;BME280;34426;52.180;4.462;2023-05-11T12:05:32;101744.56;;;15.36;76.54
48630;BME280;34426;52.180;4.462;2023-05-11T12:08:05;101747.13;;;15.48;77.02
48630;BME280;34426;52.180;4.462;2023-05-11T12:10:30;101740.06;;;15.40;75.93
48630;BME280;34426;52.180;4.462;2023-05-11T12:12:59;101737.03;;;15.57;76.01
48630;BME280;34426;52.180;4.462;2023-05-11T12:15:26;101747.19;;;15.68;75.58
48630;BME280;34426;52.180;4.462;2023-05-11T12:17:53;101739.59;;;15.84;74.87
48630;BME280;34426;52.180;4.462;2023-05-11T12:20:20;101742.41;;;15.89;74.89
48630;BME280;34426;52.180;4.462;2023-05-11T12:22:46;101737.34;;;15.96;75.11
48630;BME280;34426;52.180;4.462;2023-05-11T12:25:12;101741.56;;;15.99;74.27
48630;BME280;34426;52.180;4.462;2023-05-11T12:27:48;101726.88;;;15.81;74.58
48630;BME280;34426;52.180;4.462;2023-05-11T12:30:22;101730.25;;;16.09;75.12
48630;BME280;34426;52.180;4.462;2023-05-11T12:32:48;101730.25;;;16.24;73.94
48630;BME280;34426;52.180;4.462;2023-05-11T12:35:21;101728.53;;;16.28;73.25
48630;BME280;34426;52.180;4.462;2023-05-11T12:37:46;101735.88;;;16.29;74.33
48630;BME280;34426;52.180;4.462;2023-05-11T12:40:12;101731.34;;;16.43;72.39
48630;BME280;34426;52.180;4.462;2023-05-11T12:42:38;101734.09;;;16.63;72.36
48630;BME280;34426;52.180;4.462;2023-05-11T12:45:04;101745.38;;;16.79;71.47
48630;BME280;34426;52.180;4.462;2023-05-11T12:47:37;101742.84;;;16.77;71.42
48630;BME280;34426;52.180;4.462;2023-05-11T12:50:04;101749.03;;;16.84;70.62
48630;BME280;34426;52.180;4.462;2023-05-11T12:52:30;101737.47;;;16.81;69.40
48630;BME280;34426;52.180;4.462;2023-05-11T12:54:55;101744.28;;;16.54;70.09
48630;BME280;34426;52.180;4.462;2023-05-11T12:57:22;101740.63;;;16.49;71.28
48630;BME280;34426;52.180;4.462;2023-05-11T12:59:48;101734.09;;;16.63;69.86
48630;BME280;34426;52.180;4.462;2023-05-11T13:02:16;101740.88;;;16.73;69.92